Relevés horaires Matro (Suisse)


Relevés horaires à Matro - Samedi 12 Févr. 2022
Heure UTC1 Température [°C] Vent [km/h] Hum. [%] Pres.4 [hPa] Visi. [Km] Nébu. [octa] Préc.5 [mm] Cond.
2m. Res. Ros. Dir.2 Vit. Moy. Raf.3
23:00 -7.9 -13.1 -15.1 ESE 11.1 -- 13.0 56 850(-0.5/3h) -- -- -- --
22:00 -7.6 -10.6 -15.0 ESE 5.6 -- 9.3 55 850(-0.2/3h) -- -- -- --
21:00 -7.8 -10.8 -14.9 ESE 5.6 -- 7.4 57 850(-0.1/3h) -- -- -- --
20:00 -7.6 -7.6 -16.7 E 3.7 -- 5.6 48 850(0.1/3h) -- -- -- --
19:00 -7.1 -7.1 -15.6 S 3.7 -- 5.6 51 850(0.3/3h) -- -- -- --
18:00 -6.9 -6.9 -16.1 S 1.9 -- 24.1 48 850(-0.1/3h) -- -- -- --
17:00 -7.1 -7.1 -15.2 S 1.9 -- 9.3 52 850(-0.4/3h) -- -- -- --
16:00 -6.3 -6.3 -12.4 S 3.7 -- 14.8 62 850(-1.0/3h) -- -- -- --
15:00 -5.8 -8.5 -13.3 ESE 5.6 -- 24.1 55 850(-1.0/3h) -- -- -- --
14:00 -6.3 -10.6 -13.5 SSE 9.3 -- 24.1 57 850(-1.1/3h) -- -- -- --
13:00 -5.7 -9.9 -13.5 SE 9.3 -- 22.2 54 850(-0.5/3h) -- -- -- --
12:00 -5.5 -5.5 -12.5 ESE 3.7 -- 29.6 58 850(0.1/3h) -- -- -- --
11:00 -6.9 -6.9 -14.7 SE 3.7 -- 13.0 54 850(0.8/3h) -- -- -- --
10:00 -6.7 -6.7 -14.8 ESE 3.7 -- 11.1 52 850(1.1/3h) -- -- -- --
09:00 -7.4 -7.4 -20.7 E 3.7 -- 29.6 33 850(1.1/3h) -- -- -- --
08:00 -7.3 -11.8 -27.9 ESE 9.3 -- 27.8 17 850(0.7/3h) -- -- -- --
07:00 -7.6 -15.5 -30.2 SE 24.1 -- 29.6 14 850(0.2/3h) -- -- -- --
06:00 -7.1 -14.9 -30.0 SE 24.1 -- 29.6 14 850(0.0/3h) -- -- -- --
05:00 -6.8 -14.8 -27.9 SE 25.9 -- 29.6 17 850(0.2/3h) -- -- -- --
04:00 -6.3 -13.6 -29.1 SE 22.2 -- 25.9 14 850(0.0/3h) -- -- -- --
03:00 -5.5 -9 -37.5 S 7.4 -- 25.9 6 850(0.0/3h) -- -- -- --
02:00 -5.8 -10.6 -37.8 SSO 11.1 -- 16.7 6 850(-0.1/3h) -- -- -- --
01:00 -7.5 -12.6 -31.9 NNO 11.1 -- 25.9 12 850(0.3/3h) -- -- -- --
00:00 -7.6 -15.5 -30.1 NO 24.1 -- 83.3 14 850(0.1/3h) -- -- -- --

1 Coordinated Universal Time. Actuellement il est 08:00 locale et 06:00 UTC.

2 Le vent souffle depuis la direction indiquée vers la direction oposée.

3 Les rafales max. sont disponible 40 min après l'heure du relevé.

4 Pour les stations d'altitude (plus de 600m) le géopotentiel du niveau le plus proche de la pression obligatoire est indiqué.

5 Les stations disposant d'un diffuseur peuvent indiquer "trace". Cela signifie que des précipitations ont touchés le sol mais que la quantité est inférieure à 0.1 mm.

Copyright

Les données affichées sur cette page sont la propriété exclusive de Météo Suisse.

Récapitulatif de la journée
Température [°C] Vent [km/h] Ensoleillement4 [h] Precipitations totale5 [mm] Pression [Hpa]
Min1 Max.2 Moy.3 Max. Min Max.
-8.6 -5.2 0 83.3 9 h 24 min 0 850.0 850.0

1 Température minimale relevée entre 18:00 UTC la veille et 18:00 UTC le jour donné.

2 Température maximale relevée entre 06:00 UTC le jour donné et 06:00 UTC le lendemain.

3 Vent moyen de la journée basé sur les relevés horaires.

4 Ensoleillement en heures relevé entre 06:00 UTC la veille et 06:00 UTC le jour donné.

5 Précipitations totales tombées entre 06:00 UTC la jour donné et 06:00 UTC le lendemain.

Graphiques horaires